Moraga, CA (94556)

1:50 AM PDT on August 29, 2014 (GMT -0700)
Camino Pablo | Change Station
CLOSE
Current Station
Personal Weather Station
Location: Moraga, CA
Elevation: 502 ft
Nearby Weather Stations

Elev 502 ft 37.82 °N, 122.13 °W | Updated 2 seconds ago

Partly Cloudy
Partly Cloudy
59.7 °F
Feels Like 59.7 °F
N
0.0
Wind Variable Wind from ESE
Gusts 9.0 mph

Today
High -- | Low -- °F
--% Chance of Precip.
Yesterday
High -- | Low -- °F
Precip. -- in
6:36 AM 7:42 PM
Waxing Crescent, 13% visible
Pressure 29.98 in
Visibility 10.0 miles
Clouds Overcast 800 ft
Dew Point 56 °F
Humidity 89%
Rainfall 0.00 in
Snow Depth Not available.
UV 0 out of 12
Pollen 7.30 out of 12
PM2.5 Good
Flu Activity Not available.
METAR KOAK 290753Z 28007KT 10SM OVC008 17/14 A2998 RMK AO2 SLP150 T01670139 402390156 $

More Conditions Fewer Conditions

Pressure 29.98 in
Visibility 10.0 miles
Clouds Overcast 800 ft
Dew Point 56 °F
Humidity 89%
Rainfall 0.00 in
Snow Depth Not available.
UV 0 out of 12
Pollen 7.30 out of 12
PM2.5 Good
Flu Activity Not available.
METAR KOAK 290753Z 28007KT 10SM OVC008 17/14 A2998 RMK AO2 SLP150 T01670139 402390156 $

More Conditions Fewer Conditions

10-Day Weather Forecast

Almanac

Astronomy

Aug. 29, 2014 Rise Set
Actual Time 6:36 AM PDT 7:42 PM PDT
Civil Twilight 6:08 AM PDT 8:09 PM PDT
Nautical Twilight 5:36 AM PDT 8:41 PM PDT
Astronomical Twilight 5:03 AM PDT 9:14 PM PDT
Moon 10:25 AM PDT 9:48 PM PDT
Length of Visible Light 14h 00m
Length of Day
13h 06m
Tomorrow will be 2m 19s shorter.
Waxing Crescent, 13% of the Moon is Illuminated
Today
Waxing Crescent
Sep 2
First Quarter
Sep 8
Full
Sep 15
Last Quarter
Sep 24
New

Today's Extremes

State Highs State Lows

Community

WunderPhotos

Upload Photos

1,748,197 photos uploaded!

Nearby

Air Quality

  Air Quality AQ Index Pollutant
Yesterday Good
OZONE
Yesterday Good
PM2.5
Current Good
PM2.5
Friday Good
OZONE
Saturday Good
OZONE
Sunday Good
OZONE
Monday Good
OZONE
Tuesday Good
OZONE

Snow Depth

Station Depth Elevation
Blue Lakes 0 in 8000 ft
Forestdale Creek 0 in 8029 ft
Echo Peak 0 in 7800 ft
Rubicon #2 0 in 7500 ft
Fallen Leaf 0 in 6300 ft

Earthquake Activity

City Distance Mag. Time & Date
Napa, California 30 miles 2.6 11:57 AM PDT
2014-08-27
The Geysers, California 77 miles 2.6 7:42 AM PDT
2014-08-27
Soledad, California 105 miles 2.6 12:15 PM PDT
2014-08-26
Napa, California 29 miles 2.5 10:56 AM PDT
2014-08-26
Minimum magnitude displayed is 2.5.

Coastal Water Temperatures

Place Temperature
No Stations Reporting

Nearby Weather Stations